sensor_id;sensor_type;location;lat;lon;timestamp;temperature;humidity
67901;DHT22;54700;51.796;10.956;2022-07-24T00:01:00;16.30;63.90
67901;DHT22;54700;51.796;10.956;2022-07-24T00:03:26;16.40;64.40
67901;DHT22;54700;51.796;10.956;2022-07-24T00:05:53;16.30;64.30
67901;DHT22;54700;51.796;10.956;2022-07-24T00:08:20;16.30;64.60
67901;DHT22;54700;51.796;10.956;2022-07-24T00:10:46;16.30;64.10
67901;DHT22;54700;51.796;10.956;2022-07-24T00:13:14;16.30;64.00
67901;DHT22;54700;51.796;10.956;2022-07-24T00:15:41;16.20;64.20
67901;DHT22;54700;51.796;10.956;2022-07-24T00:18:08;16.20;64.40
67901;DHT22;54700;51.796;10.956;2022-07-24T00:20:34;16.20;64.40
67901;DHT22;54700;51.796;10.956;2022-07-24T00:23:01;16.20;64.40
67901;DHT22;54700;51.796;10.956;2022-07-24T00:25:28;16.20;64.20
67901;DHT22;54700;51.796;10.956;2022-07-24T00:27:54;16.20;64.30
67901;DHT22;54700;51.796;10.956;2022-07-24T00:30:22;16.20;64.40
67901;DHT22;54700;51.796;10.956;2022-07-24T00:32:49;16.10;64.30
67901;DHT22;54700;51.796;10.956;2022-07-24T00:35:16;16.10;64.30
67901;DHT22;54700;51.796;10.956;2022-07-24T00:37:43;16.10;64.20
67901;DHT22;54700;51.796;10.956;2022-07-24T00:40:11;16.10;64.20
67901;DHT22;54700;51.796;10.956;2022-07-24T00:42:38;16.10;64.10
67901;DHT22;54700;51.796;10.956;2022-07-24T00:45:05;16.10;64.30
67901;DHT22;54700;51.796;10.956;2022-07-24T00:47:34;16.10;64.50
67901;DHT22;54700;51.796;10.956;2022-07-24T00:50:01;16.00;64.60
67901;DHT22;54700;51.796;10.956;2022-07-24T00:52:29;16.00;64.70
67901;DHT22;54700;51.796;10.956;2022-07-24T00:54:56;16.00;64.80
67901;DHT22;54700;51.796;10.956;2022-07-24T00:57:23;15.90;64.80
67901;DHT22;54700;51.796;10.956;2022-07-24T00:59:50;15.90;64.80
67901;DHT22;54700;51.796;10.956;2022-07-24T01:02:16;15.90;64.90
67901;DHT22;54700;51.796;10.956;2022-07-24T01:04:44;15.90;65.10
67901;DHT22;54700;51.796;10.956;2022-07-24T01:07:11;15.80;65.30
67901;DHT22;54700;51.796;10.956;2022-07-24T01:09:38;15.80;65.40
67901;DHT22;54700;51.796;10.956;2022-07-24T01:12:05;15.80;65.50
67901;DHT22;54700;51.796;10.956;2022-07-24T01:14:33;15.80;65.80
67901;DHT22;54700;51.796;10.956;2022-07-24T01:17:00;15.70;65.70
67901;DHT22;54700;51.796;10.956;2022-07-24T01:19:27;15.70;66.60
67901;DHT22;54700;51.796;10.956;2022-07-24T01:21:55;15.60;67.40
67901;DHT22;54700;51.796;10.956;2022-07-24T01:24:22;15.40;67.70
67901;DHT22;54700;51.796;10.956;2022-07-24T01:26:49;15.30;68.30
67901;DHT22;54700;51.796;10.956;2022-07-24T01:29:16;15.20;68.50
67901;DHT22;54700;51.796;10.956;2022-07-24T01:31:43;15.20;69.40
67901;DHT22;54700;51.796;10.956;2022-07-24T01:34:10;15.20;68.70
67901;DHT22;54700;51.796;10.956;2022-07-24T01:36:37;15.20;67.90
67901;DHT22;54700;51.796;10.956;2022-07-24T01:39:05;15.30;67.70
67901;DHT22;54700;51.796;10.956;2022-07-24T01:41:32;15.30;67.40
67901;DHT22;54700;51.796;10.956;2022-07-24T01:43:59;15.40;67.30
67901;DHT22;54700;51.796;10.956;2022-07-24T01:46:25;15.40;67.90
67901;DHT22;54700;51.796;10.956;2022-07-24T01:48:52;15.30;69.20
67901;DHT22;54700;51.796;10.956;2022-07-24T01:51:19;15.10;69.90
67901;DHT22;54700;51.796;10.956;2022-07-24T01:53:45;15.00;69.80
67901;DHT22;54700;51.796;10.956;2022-07-24T01:56:13;14.90;70.40
67901;DHT22;54700;51.796;10.956;2022-07-24T01:58:40;14.90;70.40
67901;DHT22;54700;51.796;10.956;2022-07-24T02:01:07;14.90;70.40
67901;DHT22;54700;51.796;10.956;2022-07-24T02:03:33;15.00;70.60
67901;DHT22;54700;51.796;10.956;2022-07-24T02:06:00;15.00;70.40
67901;DHT22;54700;51.796;10.956;2022-07-24T02:08:27;14.90;70.70
67901;DHT22;54700;51.796;10.956;2022-07-24T02:10:54;14.90;70.40
67901;DHT22;54700;51.796;10.956;2022-07-24T02:13:22;14.90;70.00
67901;DHT22;54700;51.796;10.956;2022-07-24T02:15:51;14.90;70.80
67901;DHT22;54700;51.796;10.956;2022-07-24T02:18:17;14.80;70.80
67901;DHT22;54700;51.796;10.956;2022-07-24T02:20:44;14.80;70.80
67901;DHT22;54700;51.796;10.956;2022-07-24T02:23:11;14.80;70.60
67901;DHT22;54700;51.796;10.956;2022-07-24T02:25:42;14.80;70.90
67901;DHT22;54700;51.796;10.956;2022-07-24T02:28:10;14.70;71.10
67901;DHT22;54700;51.796;10.956;2022-07-24T02:30:38;14.70;71.30
67901;DHT22;54700;51.796;10.956;2022-07-24T02:33:06;14.70;71.30
67901;DHT22;54700;51.796;10.956;2022-07-24T02:35:33;14.70;71.50
67901;DHT22;54700;51.796;10.956;2022-07-24T02:38:00;14.70;71.20
67901;DHT22;54700;51.796;10.956;2022-07-24T02:40:27;14.70;71.60
67901;DHT22;54700;51.796;10.956;2022-07-24T02:42:54;14.70;72.10
67901;DHT22;54700;51.796;10.956;2022-07-24T02:45:20;14.60;72.10
67901;DHT22;54700;51.796;10.956;2022-07-24T02:47:49;14.60;72.10
67901;DHT22;54700;51.796;10.956;2022-07-24T02:50:17;14.60;72.20
67901;DHT22;54700;51.796;10.956;2022-07-24T02:52:45;14.50;71.80
67901;DHT22;54700;51.796;10.956;2022-07-24T02:55:12;14.50;72.40
67901;DHT22;54700;51.796;10.956;2022-07-24T02:57:40;14.50;72.40
67901;DHT22;54700;51.796;10.956;2022-07-24T03:00:08;14.50;72.70
67901;DHT22;54700;51.796;10.956;2022-07-24T03:02:36;14.40;72.20
67901;DHT22;54700;51.796;10.956;2022-07-24T03:05:05;14.40;72.20
67901;DHT22;54700;51.796;10.956;2022-07-24T03:07:32;14.40;72.70
67901;DHT22;54700;51.796;10.956;2022-07-24T03:10:01;14.40;71.80
67901;DHT22;54700;51.796;10.956;2022-07-24T03:12:28;14.40;71.80
67901;DHT22;54700;51.796;10.956;2022-07-24T03:14:55;14.50;70.80
67901;DHT22;54700;51.796;10.956;2022-07-24T03:17:22;14.40;71.00
67901;DHT22;54700;51.796;10.956;2022-07-24T03:19:49;14.40;71.00
67901;DHT22;54700;51.796;10.956;2022-07-24T03:22:17;14.30;71.80
67901;DHT22;54700;51.796;10.956;2022-07-24T03:24:44;14.40;71.50
67901;DHT22;54700;51.796;10.956;2022-07-24T03:27:11;14.40;71.40
67901;DHT22;54700;51.796;10.956;2022-07-24T03:29:37;14.40;71.30
67901;DHT22;54700;51.796;10.956;2022-07-24T03:32:04;14.40;71.50
67901;DHT22;54700;51.796;10.956;2022-07-24T03:34:31;14.40;71.10
67901;DHT22;54700;51.796;10.956;2022-07-24T03:36:58;14.40;70.80
67901;DHT22;54700;51.796;10.956;2022-07-24T03:39:26;14.40;70.90
67901;DHT22;54700;51.796;10.956;2022-07-24T03:41:53;14.40;71.00
67901;DHT22;54700;51.796;10.956;2022-07-24T03:44:20;14.40;71.00
67901;DHT22;54700;51.796;10.956;2022-07-24T03:46:46;14.40;70.90
67901;DHT22;54700;51.796;10.956;2022-07-24T03:49:13;14.40;70.70
67901;DHT22;54700;51.796;10.956;2022-07-24T03:51:40;14.40;70.80
67901;DHT22;54700;51.796;10.956;2022-07-24T03:54:06;14.50;70.70
67901;DHT22;54700;51.796;10.956;2022-07-24T03:56:34;14.50;70.30
67901;DHT22;54700;51.796;10.956;2022-07-24T03:59:01;14.50;70.50
67901;DHT22;54700;51.796;10.956;2022-07-24T04:01:28;14.60;70.60
67901;DHT22;54700;51.796;10.956;2022-07-24T04:03:55;14.60;70.10
67901;DHT22;54700;51.796;10.956;2022-07-24T04:06:23;14.70;71.10
67901;DHT22;54700;51.796;10.956;2022-07-24T04:08:50;14.70;71.00
67901;DHT22;54700;51.796;10.956;2022-07-24T04:11:16;14.70;71.50
67901;DHT22;54700;51.796;10.956;2022-07-24T04:13:44;14.80;70.90
67901;DHT22;54700;51.796;10.956;2022-07-24T04:16:11;14.80;71.00
67901;DHT22;54700;51.796;10.956;2022-07-24T04:18:38;14.90;71.00
67901;DHT22;54700;51.796;10.956;2022-07-24T04:21:05;15.00;70.40
67901;DHT22;54700;51.796;10.956;2022-07-24T04:23:32;15.00;69.60
67901;DHT22;54700;51.796;10.956;2022-07-24T04:25:59;15.10;69.00
67901;DHT22;54700;51.796;10.956;2022-07-24T04:28:26;15.20;68.90
67901;DHT22;54700;51.796;10.956;2022-07-24T04:30:54;15.30;68.50
67901;DHT22;54700;51.796;10.956;2022-07-24T04:33:21;15.40;69.40
67901;DHT22;54700;51.796;10.956;2022-07-24T04:35:48;15.40;68.90
67901;DHT22;54700;51.796;10.956;2022-07-24T04:38:15;15.50;69.30
67901;DHT22;54700;51.796;10.956;2022-07-24T04:40:41;15.60;68.10
67901;DHT22;54700;51.796;10.956;2022-07-24T04:43:09;15.60;67.40
67901;DHT22;54700;51.796;10.956;2022-07-24T04:45:35;15.70;67.10
67901;DHT22;54700;51.796;10.956;2022-07-24T04:48:04;15.90;66.60
67901;DHT22;54700;51.796;10.956;2022-07-24T04:50:31;16.10;66.10
67901;DHT22;54700;51.796;10.956;2022-07-24T04:52:58;16.40;65.10
67901;DHT22;54700;51.796;10.956;2022-07-24T04:55:25;17.00;63.80
67901;DHT22;54700;51.796;10.956;2022-07-24T04:57:52;17.40;62.50
67901;DHT22;54700;51.796;10.956;2022-07-24T05:00:18;17.80;61.50
67901;DHT22;54700;51.796;10.956;2022-07-24T05:02:45;17.90;60.90
67901;DHT22;54700;51.796;10.956;2022-07-24T05:05:13;17.80;60.70
67901;DHT22;54700;51.796;10.956;2022-07-24T05:07:40;17.60;61.50
67901;DHT22;54700;51.796;10.956;2022-07-24T05:10:07;17.60;62.00
67901;DHT22;54700;51.796;10.956;2022-07-24T05:12:34;17.70;61.60
67901;DHT22;54700;51.796;10.956;2022-07-24T05:15:01;17.90;61.20
67901;DHT22;54700;51.796;10.956;2022-07-24T05:17:28;17.80;61.50
67901;DHT22;54700;51.796;10.956;2022-07-24T05:19:55;17.70;61.80
67901;DHT22;54700;51.796;10.956;2022-07-24T05:22:23;18.30;60.70
67901;DHT22;54700;51.796;10.956;2022-07-24T05:24:50;19.10;58.70
67901;DHT22;54700;51.796;10.956;2022-07-24T05:27:16;19.10;57.60
67901;DHT22;54700;51.796;10.956;2022-07-24T05:29:43;19.00;58.90
67901;DHT22;54700;51.796;10.956;2022-07-24T05:32:11;18.70;59.80
67901;DHT22;54700;51.796;10.956;2022-07-24T05:34:38;18.40;59.70
67901;DHT22;54700;51.796;10.956;2022-07-24T05:37:05;18.30;60.90
67901;DHT22;54700;51.796;10.956;2022-07-24T05:39:33;18.20;61.30
67901;DHT22;54700;51.796;10.956;2022-07-24T05:42:00;18.20;61.30
67901;DHT22;54700;51.796;10.956;2022-07-24T05:44:27;18.20;61.30
67901;DHT22;54700;51.796;10.956;2022-07-24T05:46:53;18.20;61.20
67901;DHT22;54700;51.796;10.956;2022-07-24T05:49:20;18.30;60.90
67901;DHT22;54700;51.796;10.956;2022-07-24T05:51:47;18.30;60.80
67901;DHT22;54700;51.796;10.956;2022-07-24T05:54:14;18.40;60.40
67901;DHT22;54700;51.796;10.956;2022-07-24T05:56:42;18.40;59.80
67901;DHT22;54700;51.796;10.956;2022-07-24T05:59:08;18.50;59.80
67901;DHT22;54700;51.796;10.956;2022-07-24T06:01:35;18.60;59.90
67901;DHT22;54700;51.796;10.956;2022-07-24T06:04:02;18.70;59.70
67901;DHT22;54700;51.796;10.956;2022-07-24T06:06:29;18.70;58.80
67901;DHT22;54700;51.796;10.956;2022-07-24T06:08:55;18.80;58.90
67901;DHT22;54700;51.796;10.956;2022-07-24T06:11:22;18.90;58.80
67901;DHT22;54700;51.796;10.956;2022-07-24T06:13:50;18.90;58.70
67901;DHT22;54700;51.796;10.956;2022-07-24T06:16:17;18.90;58.50
67901;DHT22;54700;51.796;10.956;2022-07-24T06:18:44;19.00;58.00
67901;DHT22;54700;51.796;10.956;2022-07-24T06:21:10;19.00;57.60
67901;DHT22;54700;51.796;10.956;2022-07-24T06:23:37;19.00;58.10
67901;DHT22;54700;51.796;10.956;2022-07-24T06:26:04;19.10;57.90
67901;DHT22;54700;51.796;10.956;2022-07-24T06:28:31;19.10;57.90
67901;DHT22;54700;51.796;10.956;2022-07-24T06:30:59;19.20;57.90
67901;DHT22;54700;51.796;10.956;2022-07-24T06:33:26;19.30;57.90
67901;DHT22;54700;51.796;10.956;2022-07-24T06:35:52;19.30;58.10
67901;DHT22;54700;51.796;10.956;2022-07-24T06:38:19;19.40;57.90
67901;DHT22;54700;51.796;10.956;2022-07-24T06:40:46;19.40;57.60
67901;DHT22;54700;51.796;10.956;2022-07-24T06:43:12;19.40;57.50
67901;DHT22;54700;51.796;10.956;2022-07-24T06:45:39;19.50;57.50
67901;DHT22;54700;51.796;10.956;2022-07-24T06:48:09;19.50;57.10
67901;DHT22;54700;51.796;10.956;2022-07-24T06:50:36;19.60;57.10
67901;DHT22;54700;51.796;10.956;2022-07-24T06:53:03;19.60;56.80
67901;DHT22;54700;51.796;10.956;2022-07-24T06:55:29;19.70;57.00
67901;DHT22;54700;51.796;10.956;2022-07-24T06:57:56;19.80;56.90
67901;DHT22;54700;51.796;10.956;2022-07-24T07:00:23;19.90;57.10
67901;DHT22;54700;51.796;10.956;2022-07-24T07:02:50;20.00;56.70
67901;DHT22;54700;51.796;10.956;2022-07-24T07:05:18;20.00;56.50
67901;DHT22;54700;51.796;10.956;2022-07-24T07:07:44;20.00;56.10
67901;DHT22;54700;51.796;10.956;2022-07-24T07:10:11;20.10;56.30
67901;DHT22;54700;51.796;10.956;2022-07-24T07:12:38;20.20;56.70
67901;DHT22;54700;51.796;10.956;2022-07-24T07:15:05;20.30;55.90
67901;DHT22;54700;51.796;10.956;2022-07-24T07:17:33;20.40;55.70
67901;DHT22;54700;51.796;10.956;2022-07-24T07:19:59;20.50;55.80
67901;DHT22;54700;51.796;10.956;2022-07-24T07:22:27;20.50;55.10
67901;DHT22;54700;51.796;10.956;2022-07-24T07:24:54;20.50;55.30
67901;DHT22;54700;51.796;10.956;2022-07-24T07:27:21;20.60;55.50
67901;DHT22;54700;51.796;10.956;2022-07-24T07:29:47;20.70;55.50
67901;DHT22;54700;51.796;10.956;2022-07-24T07:32:14;20.70;55.10
67901;DHT22;54700;51.796;10.956;2022-07-24T07:34:41;20.80;54.50
67901;DHT22;54700;51.796;10.956;2022-07-24T07:37:08;20.80;53.80
67901;DHT22;54700;51.796;10.956;2022-07-24T07:39:36;20.90;53.50
67901;DHT22;54700;51.796;10.956;2022-07-24T07:42:02;20.90;53.70
67901;DHT22;54700;51.796;10.956;2022-07-24T07:44:29;21.00;53.30
67901;DHT22;54700;51.796;10.956;2022-07-24T07:46:56;21.00;51.80
67901;DHT22;54700;51.796;10.956;2022-07-24T07:49:23;21.10;52.20
67901;DHT22;54700;51.796;10.956;2022-07-24T07:51:50;21.20;52.00
67901;DHT22;54700;51.796;10.956;2022-07-24T07:54:17;21.30;50.90
67901;DHT22;54700;51.796;10.956;2022-07-24T07:56:46;21.30;51.80
67901;DHT22;54700;51.796;10.956;2022-07-24T07:59:13;21.40;51.70
67901;DHT22;54700;51.796;10.956;2022-07-24T08:01:40;21.40;51.50
67901;DHT22;54700;51.796;10.956;2022-07-24T08:04:06;21.40;51.40
67901;DHT22;54700;51.796;10.956;2022-07-24T08:06:33;21.50;51.30
67901;DHT22;54700;51.796;10.956;2022-07-24T08:09:00;21.50;51.00
67901;DHT22;54700;51.796;10.956;2022-07-24T08:11:27;21.60;51.10
67901;DHT22;54700;51.796;10.956;2022-07-24T08:13:55;21.70;50.30
67901;DHT22;54700;51.796;10.956;2022-07-24T08:16:24;21.80;49.60
67901;DHT22;54700;51.796;10.956;2022-07-24T08:18:51;21.80;49.30
67901;DHT22;54700;51.796;10.956;2022-07-24T08:21:17;21.90;48.00
67901;DHT22;54700;51.796;10.956;2022-07-24T08:23:44;21.90;48.40
67901;DHT22;54700;51.796;10.956;2022-07-24T08:26:14;21.90;48.60
67901;DHT22;54700;51.796;10.956;2022-07-24T08:28:40;21.90;48.30
67901;DHT22;54700;51.796;10.956;2022-07-24T08:31:09;21.90;48.20
67901;DHT22;54700;51.796;10.956;2022-07-24T08:33:35;21.90;47.90
67901;DHT22;54700;51.796;10.956;2022-07-24T08:36:02;22.00;49.00
67901;DHT22;54700;51.796;10.956;2022-07-24T08:38:29;22.10;49.40
67901;DHT22;54700;51.796;10.956;2022-07-24T08:40:56;22.10;49.30
67901;DHT22;54700;51.796;10.956;2022-07-24T08:43:23;22.20;48.60
67901;DHT22;54700;51.796;10.956;2022-07-24T08:45:50;22.30;48.00
67901;DHT22;54700;51.796;10.956;2022-07-24T08:48:22;22.30;48.40
67901;DHT22;54700;51.796;10.956;2022-07-24T08:50:49;22.40;47.80
67901;DHT22;54700;51.796;10.956;2022-07-24T08:53:18;22.40;48.00
67901;DHT22;54700;51.796;10.956;2022-07-24T08:55:46;22.50;47.30
67901;DHT22;54700;51.796;10.956;2022-07-24T08:58:13;22.50;47.90
67901;DHT22;54700;51.796;10.956;2022-07-24T09:00:40;22.60;48.40
67901;DHT22;54700;51.796;10.956;2022-07-24T09:03:07;22.70;47.00
67901;DHT22;54700;51.796;10.956;2022-07-24T09:05:38;22.80;47.10
67901;DHT22;54700;51.796;10.956;2022-07-24T09:08:18;22.90;47.80
67901;DHT22;54700;51.796;10.956;2022-07-24T09:10:52;22.90;46.30
67901;DHT22;54700;51.796;10.956;2022-07-24T09:13:20;23.00;47.00
67901;DHT22;54700;51.796;10.956;2022-07-24T09:15:47;23.00;47.30
67901;DHT22;54700;51.796;10.956;2022-07-24T09:18:25;23.00;47.30
67901;DHT22;54700;51.796;10.956;2022-07-24T09:20:54;23.00;47.40
67901;DHT22;54700;51.796;10.956;2022-07-24T09:23:21;23.10;47.30
67901;DHT22;54700;51.796;10.956;2022-07-24T09:25:50;23.10;47.20
67901;DHT22;54700;51.796;10.956;2022-07-24T09:28:17;23.20;45.70
67901;DHT22;54700;51.796;10.956;2022-07-24T09:30:44;23.10;45.20
67901;DHT22;54700;51.796;10.956;2022-07-24T09:33:16;23.10;45.30
67901;DHT22;54700;51.796;10.956;2022-07-24T09:35:45;23.10;45.70
67901;DHT22;54700;51.796;10.956;2022-07-24T09:38:15;23.10;45.40
67901;DHT22;54700;51.796;10.956;2022-07-24T09:40:44;23.10;45.80
67901;DHT22;54700;51.796;10.956;2022-07-24T09:43:19;23.10;46.50
67901;DHT22;54700;51.796;10.956;2022-07-24T09:45:52;23.20;45.50
67901;DHT22;54700;51.796;10.956;2022-07-24T09:48:25;23.50;45.00
67901;DHT22;54700;51.796;10.956;2022-07-24T09:50:54;23.70;45.30
67901;DHT22;54700;51.796;10.956;2022-07-24T09:53:24;23.80;45.60
67901;DHT22;54700;51.796;10.956;2022-07-24T09:55:58;23.80;45.00
67901;DHT22;54700;51.796;10.956;2022-07-24T09:58:27;23.80;44.40
67901;DHT22;54700;51.796;10.956;2022-07-24T10:00:55;23.90;45.10
67901;DHT22;54700;51.796;10.956;2022-07-24T10:03:24;24.00;45.30
67901;DHT22;54700;51.796;10.956;2022-07-24T10:05:53;24.00;45.30
67901;DHT22;54700;51.796;10.956;2022-07-24T10:08:21;24.00;44.50
67901;DHT22;54700;51.796;10.956;2022-07-24T10:10:50;23.90;44.80
67901;DHT22;54700;51.796;10.956;2022-07-24T10:13:17;24.00;45.50
67901;DHT22;54700;51.796;10.956;2022-07-24T10:15:50;24.00;45.30
67901;DHT22;54700;51.796;10.956;2022-07-24T10:18:19;24.00;45.40
67901;DHT22;54700;51.796;10.956;2022-07-24T10:20:48;24.00;43.80
67901;DHT22;54700;51.796;10.956;2022-07-24T10:23:22;23.90;44.10
67901;DHT22;54700;51.796;10.956;2022-07-24T10:25:55;23.90;44.20
67901;DHT22;54700;51.796;10.956;2022-07-24T10:28:38;24.00;43.50
67901;DHT22;54700;51.796;10.956;2022-07-24T10:31:07;24.20;43.80
67901;DHT22;54700;51.796;10.956;2022-07-24T10:33:36;24.30;42.80
67901;DHT22;54700;51.796;10.956;2022-07-24T10:36:07;24.30;43.00
67901;DHT22;54700;51.796;10.956;2022-07-24T10:38:48;24.40;43.30
67901;DHT22;54700;51.796;10.956;2022-07-24T10:41:23;24.50;42.60
67901;DHT22;54700;51.796;10.956;2022-07-24T10:52:23;24.40;43.00
67901;DHT22;54700;51.796;10.956;2022-07-24T10:57:53;24.50;42.50
67901;DHT22;54700;51.796;10.956;2022-07-24T11:00:22;24.60;42.70
67901;DHT22;54700;51.796;10.956;2022-07-24T11:02:54;24.70;42.30
67901;DHT22;54700;51.796;10.956;2022-07-24T11:05:23;24.80;42.80
67901;DHT22;54700;51.796;10.956;2022-07-24T11:11:10;24.90;41.80
67901;DHT22;54700;51.796;10.956;2022-07-24T11:13:44;24.90;41.30
67901;DHT22;54700;51.796;10.956;2022-07-24T11:16:25;25.00;41.40
67901;DHT22;54700;51.796;10.956;2022-07-24T11:22:04;25.10;41.00
67901;DHT22;54700;51.796;10.956;2022-07-24T11:24:36;25.10;41.00
67901;DHT22;54700;51.796;10.956;2022-07-24T11:27:25;25.10;41.20
67901;DHT22;54700;51.796;10.956;2022-07-24T11:29:52;25.10;41.20
67901;DHT22;54700;51.796;10.956;2022-07-24T11:32:20;25.20;41.20
67901;DHT22;54700;51.796;10.956;2022-07-24T11:34:47;25.20;41.80
67901;DHT22;54700;51.796;10.956;2022-07-24T11:37:15;25.20;42.10
67901;DHT22;54700;51.796;10.956;2022-07-24T11:39:43;25.20;42.30
67901;DHT22;54700;51.796;10.956;2022-07-24T11:42:13;25.20;41.10
67901;DHT22;54700;51.796;10.956;2022-07-24T11:44:43;25.30;41.10
67901;DHT22;54700;51.796;10.956;2022-07-24T11:47:14;25.30;40.50
67901;DHT22;54700;51.796;10.956;2022-07-24T11:49:43;25.40;40.30
67901;DHT22;54700;51.796;10.956;2022-07-24T11:52:16;25.50;39.90
67901;DHT22;54700;51.796;10.956;2022-07-24T11:54:44;25.50;40.90
67901;DHT22;54700;51.796;10.956;2022-07-24T11:57:18;25.50;40.00
67901;DHT22;54700;51.796;10.956;2022-07-24T11:59:49;25.50;40.00
67901;DHT22;54700;51.796;10.956;2022-07-24T12:02:17;25.60;39.90
67901;DHT22;54700;51.796;10.956;2022-07-24T12:04:45;25.50;39.40
67901;DHT22;54700;51.796;10.956;2022-07-24T12:07:14;25.50;40.00
67901;DHT22;54700;51.796;10.956;2022-07-24T12:09:46;25.50;40.40
67901;DHT22;54700;51.796;10.956;2022-07-24T12:12:21;25.50;39.40
67901;DHT22;54700;51.796;10.956;2022-07-24T12:14:53;25.50;39.50
67901;DHT22;54700;51.796;10.956;2022-07-24T12:17:25;25.60;39.70
67901;DHT22;54700;51.796;10.956;2022-07-24T12:19:53;25.50;39.70
67901;DHT22;54700;51.796;10.956;2022-07-24T12:22:22;25.50;40.60
67901;DHT22;54700;51.796;10.956;2022-07-24T12:24:51;25.50;40.80
67901;DHT22;54700;51.796;10.956;2022-07-24T12:27:34;25.50;41.50
67901;DHT22;54700;51.796;10.956;2022-07-24T12:30:15;25.50;40.10
67901;DHT22;54700;51.796;10.956;2022-07-24T12:32:57;25.60;39.90
67901;DHT22;54700;51.796;10.956;2022-07-24T12:35:26;25.60;38.90
67901;DHT22;54700;51.796;10.956;2022-07-24T12:37:55;25.70;38.50
67901;DHT22;54700;51.796;10.956;2022-07-24T12:40:27;25.80;38.90
67901;DHT22;54700;51.796;10.956;2022-07-24T12:43:00;25.90;38.60
67901;DHT22;54700;51.796;10.956;2022-07-24T12:45:30;26.00;39.00
67901;DHT22;54700;51.796;10.956;2022-07-24T12:48:07;26.00;39.30
67901;DHT22;54700;51.796;10.956;2022-07-24T12:50:57;26.00;39.70
67901;DHT22;54700;51.796;10.956;2022-07-24T12:53:26;26.10;38.80
67901;DHT22;54700;51.796;10.956;2022-07-24T12:56:05;26.20;39.20
67901;DHT22;54700;51.796;10.956;2022-07-24T12:58:50;26.30;38.80
67901;DHT22;54700;51.796;10.956;2022-07-24T13:01:24;26.40;38.50
67901;DHT22;54700;51.796;10.956;2022-07-24T13:03:54;26.50;38.40
67901;DHT22;54700;51.796;10.956;2022-07-24T13:06:32;26.50;38.60
67901;DHT22;54700;51.796;10.956;2022-07-24T13:09:00;26.50;38.60
67901;DHT22;54700;51.796;10.956;2022-07-24T13:11:28;26.60;38.40
67901;DHT22;54700;51.796;10.956;2022-07-24T13:13:59;26.60;37.50
67901;DHT22;54700;51.796;10.956;2022-07-24T13:16:29;26.60;37.70
67901;DHT22;54700;51.796;10.956;2022-07-24T13:18:57;26.60;37.50
67901;DHT22;54700;51.796;10.956;2022-07-24T13:21:25;26.60;37.70
67901;DHT22;54700;51.796;10.956;2022-07-24T13:23:52;26.60;38.20
67901;DHT22;54700;51.796;10.956;2022-07-24T13:26:19;26.60;38.80
67901;DHT22;54700;51.796;10.956;2022-07-24T13:28:46;26.60;37.40
67901;DHT22;54700;51.796;10.956;2022-07-24T13:31:13;26.60;38.80
67901;DHT22;54700;51.796;10.956;2022-07-24T13:33:41;26.70;38.70
67901;DHT22;54700;51.796;10.956;2022-07-24T13:36:08;26.80;39.00
67901;DHT22;54700;51.796;10.956;2022-07-24T13:38:35;26.90;37.20
67901;DHT22;54700;51.796;10.956;2022-07-24T13:41:02;26.90;37.20
67901;DHT22;54700;51.796;10.956;2022-07-24T13:43:28;26.90;37.40
67901;DHT22;54700;51.796;10.956;2022-07-24T13:45:55;26.90;37.70
67901;DHT22;54700;51.796;10.956;2022-07-24T13:48:22;26.90;38.10
67901;DHT22;54700;51.796;10.956;2022-07-24T13:50:50;27.00;36.90
67901;DHT22;54700;51.796;10.956;2022-07-24T13:53:17;27.00;37.20
67901;DHT22;54700;51.796;10.956;2022-07-24T13:55:46;27.10;37.00
67901;DHT22;54700;51.796;10.956;2022-07-24T13:58:19;27.10;36.10
67901;DHT22;54700;51.796;10.956;2022-07-24T14:00:46;27.10;37.20
67901;DHT22;54700;51.796;10.956;2022-07-24T14:03:13;27.10;37.20
67901;DHT22;54700;51.796;10.956;2022-07-24T14:05:40;27.10;36.20
67901;DHT22;54700;51.796;10.956;2022-07-24T14:08:11;27.00;36.70
67901;DHT22;54700;51.796;10.956;2022-07-24T14:10:38;27.10;37.30
67901;DHT22;54700;51.796;10.956;2022-07-24T14:13:04;27.20;38.10
67901;DHT22;54700;51.796;10.956;2022-07-24T14:15:31;27.20;37.20
67901;DHT22;54700;51.796;10.956;2022-07-24T14:17:58;27.20;37.50
67901;DHT22;54700;51.796;10.956;2022-07-24T14:20:26;27.20;36.70
67901;DHT22;54700;51.796;10.956;2022-07-24T14:22:55;27.20;36.70
67901;DHT22;54700;51.796;10.956;2022-07-24T14:25:23;27.20;36.50
67901;DHT22;54700;51.796;10.956;2022-07-24T14:27:50;27.20;36.50
67901;DHT22;54700;51.796;10.956;2022-07-24T14:30:17;27.20;36.90
67901;DHT22;54700;51.796;10.956;2022-07-24T14:32:44;27.20;36.50
67901;DHT22;54700;51.796;10.956;2022-07-24T14:35:11;27.20;36.10
67901;DHT22;54700;51.796;10.956;2022-07-24T14:37:38;27.20;36.30
67901;DHT22;54700;51.796;10.956;2022-07-24T14:40:06;27.20;37.00
67901;DHT22;54700;51.796;10.956;2022-07-24T14:42:37;27.20;36.60
67901;DHT22;54700;51.796;10.956;2022-07-24T14:45:05;27.30;37.40
67901;DHT22;54700;51.796;10.956;2022-07-24T14:47:32;27.30;35.90
67901;DHT22;54700;51.796;10.956;2022-07-24T14:49:59;27.40;36.30
67901;DHT22;54700;51.796;10.956;2022-07-24T14:52:26;27.40;36.50
67901;DHT22;54700;51.796;10.956;2022-07-24T14:54:53;27.40;36.50
67901;DHT22;54700;51.796;10.956;2022-07-24T14:57:20;27.50;36.80
67901;DHT22;54700;51.796;10.956;2022-07-24T14:59:48;27.50;36.20
67901;DHT22;54700;51.796;10.956;2022-07-24T15:02:15;27.50;36.40
67901;DHT22;54700;51.796;10.956;2022-07-24T15:04:41;27.50;36.60
67901;DHT22;54700;51.796;10.956;2022-07-24T15:07:09;27.50;35.60
67901;DHT22;54700;51.796;10.956;2022-07-24T15:09:36;27.50;36.10
67901;DHT22;54700;51.796;10.956;2022-07-24T15:12:03;27.60;35.30
67901;DHT22;54700;51.796;10.956;2022-07-24T15:14:31;27.50;35.30
67901;DHT22;54700;51.796;10.956;2022-07-24T15:16:59;27.50;35.50
67901;DHT22;54700;51.796;10.956;2022-07-24T15:19:29;27.50;35.70
67901;DHT22;54700;51.796;10.956;2022-07-24T15:21:56;27.60;35.50
67901;DHT22;54700;51.796;10.956;2022-07-24T15:24:23;27.70;34.80
67901;DHT22;54700;51.796;10.956;2022-07-24T15:26:50;27.70;35.00
67901;DHT22;54700;51.796;10.956;2022-07-24T15:29:18;27.70;35.10
67901;DHT22;54700;51.796;10.956;2022-07-24T15:31:45;27.70;35.30
67901;DHT22;54700;51.796;10.956;2022-07-24T15:34:14;27.80;35.30
67901;DHT22;54700;51.796;10.956;2022-07-24T15:36:42;27.80;35.30
67901;DHT22;54700;51.796;10.956;2022-07-24T15:39:11;27.70;35.20